sensor_id;sensor_type;location;lat;lon;timestamp;pressure;altitude;pressure_sealevel;temperature;humidity
49393;BME280;35268;42.642;23.308;2023-04-03T00:00:11;93315.31;;;8.14;57.75
49393;BME280;35268;42.642;23.308;2023-04-03T00:02:37;93310.97;;;8.18;57.57
49393;BME280;35268;42.642;23.308;2023-04-03T00:05:02;93316.75;;;8.20;57.71
49393;BME280;35268;42.642;23.308;2023-04-03T00:07:29;93306.13;;;8.20;57.65
49393;BME280;35268;42.642;23.308;2023-04-03T00:09:55;93299.22;;;8.11;57.90
49393;BME280;35268;42.642;23.308;2023-04-03T00:12:21;93300.47;;;8.04;58.39
49393;BME280;35268;42.642;23.308;2023-04-03T00:14:46;93305.31;;;8.02;58.51
49393;BME280;35268;42.642;23.308;2023-04-03T00:17:12;93297.81;;;7.96;58.63
49393;BME280;35268;42.642;23.308;2023-04-03T00:19:37;93293.59;;;7.95;58.74
49393;BME280;35268;42.642;23.308;2023-04-03T00:22:02;93291.56;;;7.92;58.86
49393;BME280;35268;42.642;23.308;2023-04-03T00:24:28;93295.94;;;7.88;58.92
49393;BME280;35268;42.642;23.308;2023-04-03T00:26:53;93285.91;;;7.84;59.04
49393;BME280;35268;42.642;23.308;2023-04-03T00:29:19;93291.22;;;7.84;59.18
49393;BME280;35268;42.642;23.308;2023-04-03T00:31:44;93290.75;;;7.82;59.29
49393;BME280;35268;42.642;23.308;2023-04-03T00:34:10;93293.56;;;7.86;59.19
49393;BME280;35268;42.642;23.308;2023-04-03T00:36:35;93294.22;;;7.92;59.34
49393;BME280;35268;42.642;23.308;2023-04-03T00:39:01;93297.34;;;7.94;59.20
49393;BME280;35268;42.642;23.308;2023-04-03T00:41:26;93292.19;;;7.97;59.55
49393;BME280;35268;42.642;23.308;2023-04-03T00:43:52;93294.06;;;7.97;59.23
49393;BME280;35268;42.642;23.308;2023-04-03T00:46:18;93298.28;;;7.98;59.48
49393;BME280;35268;42.642;23.308;2023-04-03T00:48:47;93295.63;;;7.98;59.21
49393;BME280;35268;42.642;23.308;2023-04-03T00:51:17;93300.59;;;7.99;59.34
49393;BME280;35268;42.642;23.308;2023-04-03T00:53:50;93294.06;;;7.97;59.41
49393;BME280;35268;42.642;23.308;2023-04-03T00:56:19;93300.59;;;7.99;59.43
49393;BME280;35268;42.642;23.308;2023-04-03T00:58:53;93312.63;;;7.97;59.29
49393;BME280;35268;42.642;23.308;2023-04-03T01:01:25;93311.09;;;7.96;59.25
49393;BME280;35268;42.642;23.308;2023-04-03T01:03:51;93309.03;;;7.93;59.37
49393;BME280;35268;42.642;23.308;2023-04-03T01:06:24;93312.47;;;7.93;59.27
49393;BME280;35268;42.642;23.308;2023-04-03T01:08:51;93307.00;;;7.90;59.32
49393;BME280;35268;42.642;23.308;2023-04-03T01:11:17;93312.28;;;7.81;59.52
49393;BME280;35268;42.642;23.308;2023-04-03T01:13:43;93302.13;;;7.74;59.91
49393;BME280;35268;42.642;23.308;2023-04-03T01:16:09;93306.78;;;7.69;60.30
49393;BME280;35268;42.642;23.308;2023-04-03T01:18:37;93311.91;;;7.65;60.58
49393;BME280;35268;42.642;23.308;2023-04-03T01:21:37;93306.28;;;7.58;60.48
49393;BME280;35268;42.642;23.308;2023-04-03T01:24:19;93310.81;;;7.57;60.53
49393;BME280;35268;42.642;23.308;2023-04-03T01:26:48;93305.50;;;7.57;60.36
49393;BME280;35268;42.642;23.308;2023-04-03T01:29:14;93299.09;;;7.50;60.65
49393;BME280;35268;42.642;23.308;2023-04-03T01:31:57;93300.16;;;7.49;60.56
49393;BME280;35268;42.642;23.308;2023-04-03T01:34:23;93302.66;;;7.45;60.64
49393;BME280;35268;42.642;23.308;2023-04-03T01:36:49;93305.63;;;7.43;60.86
49393;BME280;35268;42.642;23.308;2023-04-03T01:39:15;93306.09;;;7.46;61.05
49393;BME280;35268;42.642;23.308;2023-04-03T01:41:41;93308.09;;;7.40;61.28
49393;BME280;35268;42.642;23.308;2023-04-03T01:44:06;93307.13;;;7.36;61.45
49393;BME280;35268;42.642;23.308;2023-04-03T01:46:32;93297.47;;;7.31;61.34
49393;BME280;35268;42.642;23.308;2023-04-03T01:48:57;93305.13;;;7.33;61.64
49393;BME280;35268;42.642;23.308;2023-04-03T01:51:23;93308.38;;;7.30;61.64
49393;BME280;35268;42.642;23.308;2023-04-03T01:53:48;93311.78;;;7.30;61.72
49393;BME280;35268;42.642;23.308;2023-04-03T01:56:14;93316.50;;;7.33;61.56
49393;BME280;35268;42.642;23.308;2023-04-03T01:58:40;93308.06;;;7.31;61.83
49393;BME280;35268;42.642;23.308;2023-04-03T02:01:06;93305.22;;;7.28;62.16
49393;BME280;35268;42.642;23.308;2023-04-03T02:03:31;93307.13;;;7.27;62.30
49393;BME280;35268;42.642;23.308;2023-04-03T02:05:57;93304.75;;;7.26;62.42
49393;BME280;35268;42.642;23.308;2023-04-03T02:08:23;93302.56;;;7.19;62.64
49393;BME280;35268;42.642;23.308;2023-04-03T02:10:49;93304.25;;;7.15;62.84
49393;BME280;35268;42.642;23.308;2023-04-03T02:16:39;93320.72;;;7.03;63.46
49393;BME280;35268;42.642;23.308;2023-04-03T02:19:04;93318.34;;;7.01;63.73
49393;BME280;35268;42.642;23.308;2023-04-03T02:21:30;93314.94;;;7.01;63.93
49393;BME280;35268;42.642;23.308;2023-04-03T02:23:55;93309.75;;;6.96;63.96
49393;BME280;35268;42.642;23.308;2023-04-03T02:26:21;93302.72;;;6.91;63.89
49393;BME280;35268;42.642;23.308;2023-04-03T02:28:47;93306.56;;;6.85;64.10
49393;BME280;35268;42.642;23.308;2023-04-03T02:31:13;93297.97;;;6.79;64.33
49393;BME280;35268;42.642;23.308;2023-04-03T02:33:38;93296.22;;;6.75;64.44
49393;BME280;35268;42.642;23.308;2023-04-03T02:36:05;93294.50;;;6.70;64.63
49393;BME280;35268;42.642;23.308;2023-04-03T02:38:31;93295.88;;;6.68;64.82
49393;BME280;35268;42.642;23.308;2023-04-03T02:41:08;93295.81;;;6.59;65.21
49393;BME280;35268;42.642;23.308;2023-04-03T02:43:34;93293.88;;;6.51;65.29
49393;BME280;35268;42.642;23.308;2023-04-03T02:46:00;93294.19;;;6.49;65.70
49393;BME280;35268;42.642;23.308;2023-04-03T02:48:25;93288.41;;;6.47;65.74
49393;BME280;35268;42.642;23.308;2023-04-03T02:50:51;93292.72;;;6.43;65.70
49393;BME280;35268;42.642;23.308;2023-04-03T02:53:17;93280.09;;;6.40;66.08
49393;BME280;35268;42.642;23.308;2023-04-03T02:55:43;93273.72;;;6.41;65.92
49393;BME280;35268;42.642;23.308;2023-04-03T02:58:08;93266.97;;;6.35;66.07
49393;BME280;35268;42.642;23.308;2023-04-03T03:00:34;93281.31;;;6.34;66.20
49393;BME280;35268;42.642;23.308;2023-04-03T03:02:59;93270.53;;;6.30;66.20
49393;BME280;35268;42.642;23.308;2023-04-03T03:05:26;93265.25;;;6.30;66.22
49393;BME280;35268;42.642;23.308;2023-04-03T03:07:51;93268.19;;;6.29;66.36
49393;BME280;35268;42.642;23.308;2023-04-03T03:10:17;93263.69;;;6.29;66.16
49393;BME280;35268;42.642;23.308;2023-04-03T03:12:42;93256.63;;;6.25;66.42
49393;BME280;35268;42.642;23.308;2023-04-03T03:15:08;93268.59;;;6.22;66.35
49393;BME280;35268;42.642;23.308;2023-04-03T03:17:34;93265.28;;;6.16;66.56
49393;BME280;35268;42.642;23.308;2023-04-03T03:20:00;93261.88;;;6.16;66.47
49393;BME280;35268;42.642;23.308;2023-04-03T03:22:26;93264.31;;;6.12;66.47
49393;BME280;35268;42.642;23.308;2023-04-03T03:24:51;93262.16;;;6.14;66.57
49393;BME280;35268;42.642;23.308;2023-04-03T03:27:17;93266.38;;;6.15;66.52
49393;BME280;35268;42.642;23.308;2023-04-03T03:29:42;93268.72;;;6.17;66.48
49393;BME280;35268;42.642;23.308;2023-04-03T03:32:08;93261.56;;;6.17;66.63
49393;BME280;35268;42.642;23.308;2023-04-03T03:34:33;93256.28;;;6.17;66.50
49393;BME280;35268;42.642;23.308;2023-04-03T03:36:59;93264.69;;;6.19;66.63
49393;BME280;35268;42.642;23.308;2023-04-03T03:39:26;93272.94;;;6.18;66.77
49393;BME280;35268;42.642;23.308;2023-04-03T03:41:51;93270.00;;;6.19;66.87
49393;BME280;35268;42.642;23.308;2023-04-03T03:44:19;93265.47;;;6.20;67.01
49393;BME280;35268;42.642;23.308;2023-04-03T03:46:44;93259.13;;;6.21;66.86
49393;BME280;35268;42.642;23.308;2023-04-03T03:49:10;93259.59;;;6.23;66.83
49393;BME280;35268;42.642;23.308;2023-04-03T03:51:36;93272.22;;;6.26;66.91
49393;BME280;35268;42.642;23.308;2023-04-03T03:54:03;93270.19;;;6.23;66.95
49393;BME280;35268;42.642;23.308;2023-04-03T03:56:28;93268.59;;;6.22;66.97
49393;BME280;35268;42.642;23.308;2023-04-03T03:58:54;93271.53;;;6.20;66.95
49393;BME280;35268;42.642;23.308;2023-04-03T04:01:22;93273.13;;;6.21;66.93
49393;BME280;35268;42.642;23.308;2023-04-03T04:03:48;93270.47;;;6.21;66.98
49393;BME280;35268;42.642;23.308;2023-04-03T04:06:13;93275.78;;;6.21;67.07
49393;BME280;35268;42.642;23.308;2023-04-03T04:08:39;93263.94;;;6.19;67.20
49393;BME280;35268;42.642;23.308;2023-04-03T04:11:05;93261.44;;;6.22;67.08
49393;BME280;35268;42.642;23.308;2023-04-03T04:13:30;93281.16;;;6.16;67.03
49393;BME280;35268;42.642;23.308;2023-04-03T04:15:56;93283.75;;;6.08;67.53
49393;BME280;35268;42.642;23.308;2023-04-03T04:18:21;93285.63;;;6.07;67.72
49393;BME280;35268;42.642;23.308;2023-04-03T04:20:48;93282.00;;;6.03;67.62
49393;BME280;35268;42.642;23.308;2023-04-03T04:23:14;93286.38;;;6.08;68.11
49393;BME280;35268;42.642;23.308;2023-04-03T04:25:39;93282.34;;;6.10;68.09
49393;BME280;35268;42.642;23.308;2023-04-03T04:28:05;93292.44;;;6.08;68.29
49393;BME280;35268;42.642;23.308;2023-04-03T04:30:31;93275.50;;;6.09;68.34
49393;BME280;35268;42.642;23.308;2023-04-03T04:32:56;93284.53;;;6.08;68.53
49393;BME280;35268;42.642;23.308;2023-04-03T04:35:21;93287.84;;;6.14;68.43
49393;BME280;35268;42.642;23.308;2023-04-03T04:37:47;93289.59;;;6.18;68.78
49393;BME280;35268;42.642;23.308;2023-04-03T04:40:12;93292.13;;;6.23;68.28
49393;BME280;35268;42.642;23.308;2023-04-03T04:42:38;93293.09;;;6.28;68.09
49393;BME280;35268;42.642;23.308;2023-04-03T04:45:03;93295.75;;;6.28;68.06
49393;BME280;35268;42.642;23.308;2023-04-03T04:47:29;93297.47;;;6.32;68.37
49393;BME280;35268;42.642;23.308;2023-04-03T04:49:55;93305.19;;;6.42;68.17
49393;BME280;35268;42.642;23.308;2023-04-03T04:52:20;93304.00;;;6.49;68.12
49393;BME280;35268;42.642;23.308;2023-04-03T04:54:46;93310.25;;;6.53;67.64
49393;BME280;35268;42.642;23.308;2023-04-03T04:57:11;93307.31;;;6.54;67.71
49393;BME280;35268;42.642;23.308;2023-04-03T04:59:37;93312.19;;;6.61;67.26
49393;BME280;35268;42.642;23.308;2023-04-03T05:02:02;93318.75;;;6.63;67.34
49393;BME280;35268;42.642;23.308;2023-04-03T05:04:28;93312.84;;;6.67;67.06
49393;BME280;35268;42.642;23.308;2023-04-03T05:06:53;93313.81;;;6.71;66.94
49393;BME280;35268;42.642;23.308;2023-04-03T05:09:19;93326.94;;;6.76;66.94
49393;BME280;35268;42.642;23.308;2023-04-03T05:11:45;93324.94;;;6.81;67.15
49393;BME280;35268;42.642;23.308;2023-04-03T05:14:11;93326.22;;;6.84;66.56
49393;BME280;35268;42.642;23.308;2023-04-03T05:16:36;93333.53;;;6.87;66.42
49393;BME280;35268;42.642;23.308;2023-04-03T05:19:02;93334.97;;;6.93;66.73
49393;BME280;35268;42.642;23.308;2023-04-03T05:21:28;93336.59;;;7.03;66.84
49393;BME280;35268;42.642;23.308;2023-04-03T05:24:00;93335.09;;;7.11;66.88
49393;BME280;35268;42.642;23.308;2023-04-03T05:26:30;93342.91;;;7.16;66.95
49393;BME280;35268;42.642;23.308;2023-04-03T05:28:55;93340.78;;;7.27;66.23
49393;BME280;35268;42.642;23.308;2023-04-03T05:31:21;93351.44;;;7.35;65.35
49393;BME280;35268;42.642;23.308;2023-04-03T05:33:47;93331.03;;;7.44;64.57
49393;BME280;35268;42.642;23.308;2023-04-03T05:36:12;93336.06;;;7.55;64.68
49393;BME280;35268;42.642;23.308;2023-04-03T05:38:38;93324.97;;;7.53;64.62
49393;BME280;35268;42.642;23.308;2023-04-03T05:41:03;93327.50;;;7.58;64.92
49393;BME280;35268;42.642;23.308;2023-04-03T05:43:29;93327.81;;;7.65;64.44
49393;BME280;35268;42.642;23.308;2023-04-03T05:45:55;93330.63;;;7.60;64.34
49393;BME280;35268;42.642;23.308;2023-04-03T05:48:20;93333.00;;;7.61;64.87
49393;BME280;35268;42.642;23.308;2023-04-03T05:50:46;93318.31;;;7.64;65.35
49393;BME280;35268;42.642;23.308;2023-04-03T05:53:20;93317.41;;;7.69;64.90
49393;BME280;35268;42.642;23.308;2023-04-03T05:55:46;93310.69;;;7.71;64.20
49393;BME280;35268;42.642;23.308;2023-04-03T05:58:11;93318.81;;;7.75;64.43
49393;BME280;35268;42.642;23.308;2023-04-03T06:00:37;93316.34;;;7.78;63.55
49393;BME280;35268;42.642;23.308;2023-04-03T06:03:02;93320.25;;;7.81;64.07
49393;BME280;35268;42.642;23.308;2023-04-03T06:05:28;93314.16;;;7.80;64.06
49393;BME280;35268;42.642;23.308;2023-04-03T06:07:53;93312.44;;;7.84;64.19
49393;BME280;35268;42.642;23.308;2023-04-03T06:10:19;93306.03;;;7.86;64.84
49393;BME280;35268;42.642;23.308;2023-04-03T06:12:45;93301.34;;;7.74;64.74
49393;BME280;35268;42.642;23.308;2023-04-03T06:15:11;93305.72;;;7.78;65.69
49393;BME280;35268;42.642;23.308;2023-04-03T06:17:37;93292.94;;;7.89;65.87
49393;BME280;35268;42.642;23.308;2023-04-03T06:20:03;93293.59;;;7.95;65.34
49393;BME280;35268;42.642;23.308;2023-04-03T06:22:29;93292.50;;;7.96;65.79
49393;BME280;35268;42.642;23.308;2023-04-03T06:24:56;93294.41;;;8.04;65.41
49393;BME280;35268;42.642;23.308;2023-04-03T06:27:21;93304.06;;;8.09;65.03
49393;BME280;35268;42.642;23.308;2023-04-03T06:29:47;93303.72;;;8.01;64.92
49393;BME280;35268;42.642;23.308;2023-04-03T06:32:15;93313.28;;;8.11;64.80
49393;BME280;35268;42.642;23.308;2023-04-03T06:34:41;93310.50;;;8.25;64.81
49393;BME280;35268;42.642;23.308;2023-04-03T06:37:15;93314.72;;;8.35;64.33
49393;BME280;35268;42.642;23.308;2023-04-03T06:39:41;93318.63;;;8.46;64.06
49393;BME280;35268;42.642;23.308;2023-04-03T06:42:07;93314.91;;;8.56;64.09
49393;BME280;35268;42.642;23.308;2023-04-03T06:44:32;93318.16;;;8.70;63.97
49393;BME280;35268;42.642;23.308;2023-04-03T06:46:59;93315.50;;;8.79;63.52
49393;BME280;35268;42.642;23.308;2023-04-03T06:49:25;93312.38;;;8.94;62.57
49393;BME280;35268;42.642;23.308;2023-04-03T06:51:51;93320.94;;;9.09;61.46
49393;BME280;35268;42.642;23.308;2023-04-03T06:54:17;93331.19;;;9.28;60.19
49393;BME280;35268;42.642;23.308;2023-04-03T06:56:43;93327.63;;;9.23;59.84
49393;BME280;35268;42.642;23.308;2023-04-03T06:59:10;93330.59;;;9.31;59.35
49393;BME280;35268;42.642;23.308;2023-04-03T07:01:38;93326.34;;;9.38;59.03
49393;BME280;35268;42.642;23.308;2023-04-03T07:04:03;93320.22;;;9.47;58.72
49393;BME280;35268;42.642;23.308;2023-04-03T07:06:29;93321.88;;;9.60;58.55
49393;BME280;35268;42.642;23.308;2023-04-03T07:08:56;93318.84;;;9.70;58.06
49393;BME280;35268;42.642;23.308;2023-04-03T07:11:21;93312.09;;;9.73;57.84
49393;BME280;35268;42.642;23.308;2023-04-03T07:13:47;93312.22;;;9.85;57.19
49393;BME280;35268;42.642;23.308;2023-04-03T07:16:13;93303.13;;;9.86;57.08
49393;BME280;35268;42.642;23.308;2023-04-03T07:18:39;93308.94;;;9.79;57.75
49393;BME280;35268;42.642;23.308;2023-04-03T07:21:04;93306.31;;;9.71;57.83
49393;BME280;35268;42.642;23.308;2023-04-03T07:23:30;93301.81;;;9.62;57.83
49393;BME280;35268;42.642;23.308;2023-04-03T07:25:56;93301.78;;;9.71;58.39
49393;BME280;35268;42.642;23.308;2023-04-03T07:28:21;93292.84;;;9.76;58.51
49393;BME280;35268;42.642;23.308;2023-04-03T07:30:53;93294.69;;;9.84;58.54
49393;BME280;35268;42.642;23.308;2023-04-03T07:33:21;93294.31;;;9.94;58.31
49393;BME280;35268;42.642;23.308;2023-04-03T07:35:47;93285.34;;;9.99;58.37
49393;BME280;35268;42.642;23.308;2023-04-03T07:38:12;93291.47;;;9.99;58.24
49393;BME280;35268;42.642;23.308;2023-04-03T07:40:39;93284.72;;;10.02;58.25
49393;BME280;35268;42.642;23.308;2023-04-03T07:43:05;93283.41;;;10.08;58.05
49393;BME280;35268;42.642;23.308;2023-04-03T07:45:34;93285.63;;;10.06;57.66
49393;BME280;35268;42.642;23.308;2023-04-03T07:48:00;93272.09;;;10.11;57.90
49393;BME280;35268;42.642;23.308;2023-04-03T07:50:25;93277.97;;;10.25;57.18
49393;BME280;35268;42.642;23.308;2023-04-03T07:52:51;93278.41;;;10.36;56.91
49393;BME280;35268;42.642;23.308;2023-04-03T07:55:17;93280.81;;;10.50;56.41
49393;BME280;35268;42.642;23.308;2023-04-03T07:57:43;93274.41;;;10.63;56.06
49393;BME280;35268;42.642;23.308;2023-04-03T08:00:09;93279.25;;;10.82;55.59
49393;BME280;35268;42.642;23.308;2023-04-03T08:02:34;93279.50;;;10.90;54.00
49393;BME280;35268;42.642;23.308;2023-04-03T08:05:00;93279.84;;;11.00;54.09
49393;BME280;35268;42.642;23.308;2023-04-03T08:07:26;93284.44;;;11.12;53.51
49393;BME280;35268;42.642;23.308;2023-04-03T08:09:51;93281.34;;;11.22;53.32
49393;BME280;35268;42.642;23.308;2023-04-03T08:12:17;93269.81;;;11.31;53.62
49393;BME280;35268;42.642;23.308;2023-04-03T08:14:42;93273.19;;;11.52;53.52
49393;BME280;35268;42.642;23.308;2023-04-03T08:17:08;93270.84;;;11.75;53.13
49393;BME280;35268;42.642;23.308;2023-04-03T08:19:37;93269.75;;;12.01;52.36
49393;BME280;35268;42.642;23.308;2023-04-03T08:22:03;93264.38;;;12.26;51.45
49393;BME280;35268;42.642;23.308;2023-04-03T08:24:30;93262.88;;;12.40;50.63
49393;BME280;35268;42.642;23.308;2023-04-03T08:26:56;93264.03;;;12.55;50.99
49393;BME280;35268;42.642;23.308;2023-04-03T08:29:21;93264.66;;;12.77;49.92
49393;BME280;35268;42.642;23.308;2023-04-03T08:31:47;93256.25;;;12.91;49.70
49393;BME280;35268;42.642;23.308;2023-04-03T08:34:14;93258.47;;;13.04;49.61
49393;BME280;35268;42.642;23.308;2023-04-03T08:36:40;93250.84;;;13.19;49.15
49393;BME280;35268;42.642;23.308;2023-04-03T08:39:06;93240.75;;;13.28;48.26
49393;BME280;35268;42.642;23.308;2023-04-03T08:41:37;93250.53;;;13.36;48.12
49393;BME280;35268;42.642;23.308;2023-04-03T08:44:30;93245.38;;;13.43;48.36
49393;BME280;35268;42.642;23.308;2023-04-03T08:49:57;93240.59;;;13.69;47.74
49393;BME280;35268;42.642;23.308;2023-04-03T08:52:50;93240.50;;;13.81;47.39
49393;BME280;35268;42.642;23.308;2023-04-03T08:55:45;93243.06;;;13.93;47.14
49393;BME280;35268;42.642;23.308;2023-04-03T09:01:07;93219.69;;;14.10;46.66
49393;BME280;35268;42.642;23.308;2023-04-03T09:03:40;93226.84;;;14.21;46.68
49393;BME280;35268;42.642;23.308;2023-04-03T09:06:24;93229.38;;;14.34;46.24
49393;BME280;35268;42.642;23.308;2023-04-03T09:16:56;93206.41;;;14.72;45.33
49393;BME280;35268;42.642;23.308;2023-04-03T09:22:07;93204.44;;;14.88;44.49
49393;BME280;35268;42.642;23.308;2023-04-03T09:24:36;93197.50;;;14.87;44.39
49393;BME280;35268;42.642;23.308;2023-04-03T09:27:09;93202.63;;;14.96;43.92
49393;BME280;35268;42.642;23.308;2023-04-03T09:29:41;93199.59;;;14.97;42.42
49393;BME280;35268;42.642;23.308;2023-04-03T09:32:19;93187.78;;;15.02;41.77
49393;BME280;35268;42.642;23.308;2023-04-03T09:34:47;93192.72;;;15.00;41.24
49393;BME280;35268;42.642;23.308;2023-04-03T09:37:34;93193.94;;;15.02;40.77
49393;BME280;35268;42.642;23.308;2023-04-03T09:40:02;93192.09;;;15.07;39.96
49393;BME280;35268;42.642;23.308;2023-04-03T09:42:30;93187.66;;;15.18;40.29
49393;BME280;35268;42.642;23.308;2023-04-03T09:44:59;93193.28;;;15.32;40.38
49393;BME280;35268;42.642;23.308;2023-04-03T09:47:31;93176.81;;;15.34;39.65
49393;BME280;35268;42.642;23.308;2023-04-03T09:52:44;93176.69;;;15.50;39.16
49393;BME280;35268;42.642;23.308;2023-04-03T09:55:18;93177.94;;;15.56;39.17
49393;BME280;35268;42.642;23.308;2023-04-03T09:57:45;93169.59;;;15.64;39.17
49393;BME280;35268;42.642;23.308;2023-04-03T10:00:27;93173.44;;;15.63;38.47
49393;BME280;35268;42.642;23.308;2023-04-03T10:02:57;93170.75;;;15.63;38.39
49393;BME280;35268;42.642;23.308;2023-04-03T10:05:37;93171.94;;;15.66;38.37
49393;BME280;35268;42.642;23.308;2023-04-03T10:10:48;93164.59;;;15.63;38.64
49393;BME280;35268;42.642;23.308;2023-04-03T10:13:20;93167.13;;;15.52;38.71
49393;BME280;35268;42.642;23.308;2023-04-03T10:23:51;93173.47;;;14.94;39.82
49393;BME280;35268;42.642;23.308;2023-04-03T10:34:48;93158.41;;;14.86;40.64
49393;BME280;35268;42.642;23.308;2023-04-03T10:37:26;93145.34;;;14.84;40.85
49393;BME280;35268;42.642;23.308;2023-04-03T10:40:01;93146.81;;;14.82;41.09
49393;BME280;35268;42.642;23.308;2023-04-03T10:42:52;93148.38;;;14.83;41.08
49393;BME280;35268;42.642;23.308;2023-04-03T10:45:35;93133.69;;;14.77;41.25
49393;BME280;35268;42.642;23.308;2023-04-03T10:48:09;93130.59;;;14.75;41.11
49393;BME280;35268;42.642;23.308;2023-04-03T10:51:04;93133.59;;;14.70;41.38
49393;BME280;35268;42.642;23.308;2023-04-03T10:58:35;93130.28;;;14.57;42.64
49393;BME280;35268;42.642;23.308;2023-04-03T11:01:09;93135.56;;;14.53;43.65
49393;BME280;35268;42.642;23.308;2023-04-03T11:03:43;93136.09;;;14.43;44.66
49393;BME280;35268;42.642;23.308;2023-04-03T11:06:12;93139.09;;;14.38;45.77
49393;BME280;35268;42.642;23.308;2023-04-03T11:11:13;93141.06;;;14.21;47.14
49393;BME280;35268;42.642;23.308;2023-04-03T11:14:03;93147.41;;;14.13;48.27
49393;BME280;35268;42.642;23.308;2023-04-03T11:16:35;93145.50;;;13.94;48.11
49393;BME280;35268;42.642;23.308;2023-04-03T11:19:07;93139.91;;;13.83;49.28
49393;BME280;35268;42.642;23.308;2023-04-03T11:21:48;93136.66;;;13.74;50.59
49393;BME280;35268;42.642;23.308;2023-04-03T11:24:25;93133.41;;;13.65;52.35
49393;BME280;35268;42.642;23.308;2023-04-03T11:26:54;93146.56;;;13.54;53.34
49393;BME280;35268;42.642;23.308;2023-04-03T11:29:24;93135.88;;;13.38;54.74
49393;BME280;35268;42.642;23.308;2023-04-03T11:34:40;93143.13;;;13.22;58.76
49393;BME280;35268;42.642;23.308;2023-04-03T11:40:00;93140.28;;;12.99;59.77
49393;BME280;35268;42.642;23.308;2023-04-03T11:42:37;93145.72;;;12.87;60.73
49393;BME280;35268;42.642;23.308;2023-04-03T12:16:42;93147.16;;;11.71;66.74
49393;BME280;35268;42.642;23.308;2023-04-03T12:26:50;93134.06;;;11.41;68.13
49393;BME280;35268;42.642;23.308;2023-04-03T12:29:29;93127.66;;;11.30;69.03
49393;BME280;35268;42.642;23.308;2023-04-03T12:46:14;93102.84;;;11.05;71.30
49393;BME280;35268;42.642;23.308;2023-04-03T12:48:59;93094.53;;;10.94;71.15
49393;BME280;35268;42.642;23.308;2023-04-03T12:51:38;93088.31;;;10.90;71.56
49393;BME280;35268;42.642;23.308;2023-04-03T12:54:15;93081.97;;;10.82;72.50
49393;BME280;35268;42.642;23.308;2023-04-03T12:56:41;93087.31;;;10.82;72.75
49393;BME280;35268;42.642;23.308;2023-04-03T12:59:24;93090.31;;;10.81;72.30
49393;BME280;35268;42.642;23.308;2023-04-03T13:01:58;93090.09;;;10.74;72.55
49393;BME280;35268;42.642;23.308;2023-04-03T13:04:25;93087.66;;;10.69;73.17
49393;BME280;35268;42.642;23.308;2023-04-03T13:06:51;93090.53;;;10.63;72.86
49393;BME280;35268;42.642;23.308;2023-04-03T13:09:31;93093.75;;;10.57;72.96
49393;BME280;35268;42.642;23.308;2023-04-03T13:12:10;93093.50;;;10.50;72.71
49393;BME280;35268;42.642;23.308;2023-04-03T13:14:37;93086.06;;;10.43;73.48
49393;BME280;35268;42.642;23.308;2023-04-03T13:17:09;93098.47;;;10.39;72.88
49393;BME280;35268;42.642;23.308;2023-04-03T13:19:36;93084.91;;;10.32;73.16
49393;BME280;35268;42.642;23.308;2023-04-03T13:22:06;93086.88;;;10.22;73.48
49393;BME280;35268;42.642;23.308;2023-04-03T13:24:37;93084.63;;;10.12;74.33
49393;BME280;35268;42.642;23.308;2023-04-03T13:27:03;93081.06;;;10.08;74.66
49393;BME280;35268;42.642;23.308;2023-04-03T13:29:33;93073.25;;;10.03;75.13
49393;BME280;35268;42.642;23.308;2023-04-03T13:32:00;93070.50;;;9.99;75.44
49393;BME280;35268;42.642;23.308;2023-04-03T13:34:42;93072.00;;;9.88;75.01
49393;BME280;35268;42.642;23.308;2023-04-03T13:37:23;93076.88;;;9.86;75.01
49393;BME280;35268;42.642;23.308;2023-04-03T13:42:29;93066.94;;;9.74;75.49
49393;BME280;35268;42.642;23.308;2023-04-03T13:45:22;93080.47;;;9.69;75.28
49393;BME280;35268;42.642;23.308;2023-04-03T13:47:50;93075.00;;;9.66;74.78
49393;BME280;35268;42.642;23.308;2023-04-03T13:50:22;93076.91;;;9.65;74.53
49393;BME280;35268;42.642;23.308;2023-04-03T13:52:59;93073.00;;;9.62;74.89
49393;BME280;35268;42.642;23.308;2023-04-03T13:55:31;93063.34;;;9.58;74.80
49393;BME280;35268;42.642;23.308;2023-04-03T13:58:03;93059.31;;;9.52;74.67
49393;BME280;35268;42.642;23.308;2023-04-03T14:00:50;93060.31;;;9.47;74.89
49393;BME280;35268;42.642;23.308;2023-04-03T14:03:58;93059.41;;;9.43;75.58
49393;BME280;35268;42.642;23.308;2023-04-03T14:06:16;93063.59;;;9.44;75.85
49393;BME280;35268;42.642;23.308;2023-04-03T14:08:43;93048.75;;;9.43;75.92
49393;BME280;35268;42.642;23.308;2023-04-03T14:11:22;93061.91;;;9.39;75.94
49393;BME280;35268;42.642;23.308;2023-04-03T14:13:49;93061.16;;;9.39;75.39
49393;BME280;35268;42.642;23.308;2023-04-03T14:16:18;93055.56;;;9.32;75.42
49393;BME280;35268;42.642;23.308;2023-04-03T14:18:45;93055.09;;;9.30;75.75
49393;BME280;35268;42.642;23.308;2023-04-03T14:21:13;93051.66;;;9.29;75.99
49393;BME280;35268;42.642;23.308;2023-04-03T14:23:39;93054.66;;;9.28;75.88
49393;BME280;35268;42.642;23.308;2023-04-03T14:26:19;93051.66;;;9.29;76.26
49393;BME280;35268;42.642;23.308;2023-04-03T14:28:48;93048.56;;;9.27;76.51
49393;BME280;35268;42.642;23.308;2023-04-03T14:31:15;93042.47;;;9.27;76.55
49393;BME280;35268;42.642;23.308;2023-04-03T14:33:41;93050.44;;;9.27;76.29
49393;BME280;35268;42.642;23.308;2023-04-03T14:36:36;93050.75;;;9.25;76.29
49393;BME280;35268;42.642;23.308;2023-04-03T14:39:03;93050.00;;;9.24;76.18
49393;BME280;35268;42.642;23.308;2023-04-03T14:41:29;93043.91;;;9.24;75.86
49393;BME280;35268;42.642;23.308;2023-04-03T14:43:55;93052.44;;;9.09;75.19
49393;BME280;35268;42.642;23.308;2023-04-03T14:46:30;93045.28;;;9.00;75.52
49393;BME280;35268;42.642;23.308;2023-04-03T14:48:57;93028.28;;;8.93;75.45
49393;BME280;35268;42.642;23.308;2023-04-03T14:51:23;93026.28;;;8.90;74.96
49393;BME280;35268;42.642;23.308;2023-04-03T14:53:48;93038.66;;;8.86;74.96
49393;BME280;35268;42.642;23.308;2023-04-03T14:56:18;93032.31;;;8.78;74.66